Flight Track Log - Related Links

Times and Time Zones

All times are in EDT time to prevent confusion due to time zone crossing. See the GUJ242 flight status page for this flight to view local times or setup timezone preferences in your user account.

Time Position Orientation Groundspeed Altitude Reporting Facility
EDT Latitude Longitude Course Direction KTS MPH feet Rate Location/Type
Wed 09:21:00 AM 17.1354 74.9625 145° Southeast  Level Estimated
Wed 09:22:00 AM 17.0629 75.0142 146° Southeast  Level Estimated
Wed 09:23:00 AM 16.9904 75.0658 146° Southeast  Level Estimated
Wed 09:24:00 AM 16.9179 75.1174 146° Southeast  Level Estimated
Wed 09:25:00 AM 16.8454 75.1690 146° Southeast  Level Estimated
Wed 09:26:00 AM 16.7728 75.2206 146° Southeast  Level Estimated
Wed 09:27:00 AM 16.7003 75.2721 146° Southeast  Level Estimated
Wed 09:28:00 AM 16.6277 75.3235 146° Southeast  Level Estimated
Wed 09:29:00 AM 16.5551 75.3749 146° Southeast  Level Estimated
Wed 09:30:00 AM 16.4826 75.4263 146° Southeast  Level Estimated
Wed 09:31:00 AM 16.4100 75.4777 146° Southeast  Level Estimated
Wed 09:32:00 AM 16.3374 75.5290 146° Southeast  Level Estimated
Wed 09:33:00 AM 16.2647 75.5803 146° Southeast  Level Estimated
Wed 09:34:00 AM 16.1921 75.6315 146° Southeast  Level Estimated
Wed 09:35:00 AM 16.1195 75.6827 146° Southeast  Level Estimated
Wed 09:36:00 AM 16.0468 75.7338 146° Southeast  Level Estimated
Wed 09:37:00 AM 15.9741 75.7850 146° Southeast  Level Estimated
Wed 09:38:00 AM 15.9015 75.8361 146° Southeast  Level Estimated
Wed 09:39:00 AM 15.8288 75.8871 146° Southeast  Level Estimated
Wed 09:40:00 AM 15.7561 75.9381 146° Southeast  Level Estimated
Wed 09:41:00 AM 15.6833 75.9891 146° Southeast  Level Estimated
Wed 09:42:00 AM 15.6106 76.0400 146° Southeast  Level Estimated
Wed 09:43:00 AM 15.5379 76.0909 146° Southeast  Level Estimated
Wed 09:44:00 AM 15.4651 76.1418 146° Southeast  Level Estimated
Wed 09:45:00 AM 15.3924 76.1926 146° Southeast  Level Estimated
Wed 09:46:00 AM 15.3196 76.2434 146° Southeast  Level Estimated
Wed 09:47:00 AM 15.2468 76.2942 146° Southeast  Level Estimated
Wed 09:48:00 AM 15.1740 76.3449 146° Southeast  Level Estimated
Wed 09:49:00 AM 15.1012 76.3956 146° Southeast  Level Estimated
Wed 09:50:00 AM 15.0284 76.4462 146° Southeast  Level Estimated
Wed 09:51:00 AM 14.9555 76.4968 146° Southeast  Level Estimated
Wed 09:52:00 AM 14.8827 76.5474 146° Southeast  Level Estimated
Wed 09:53:00 AM 14.8098 76.5980 146° Southeast  Level Estimated
Wed 09:54:00 AM 14.7370 76.6485 146° Southeast  Level Estimated
Wed 09:55:00 AM 14.6641 76.6990 146° Southeast  Level Estimated
Wed 09:56:00 AM 14.5912 76.7494 146° Southeast  Level Estimated
Wed 09:57:00 AM 14.5183 76.7998 146° Southeast  Level Estimated
Wed 09:58:00 AM 14.4454 76.8502 146° Southeast  Level Estimated
Wed 09:59:00 AM 14.3725 76.9006 146° Southeast  Level Estimated
Wed 10:00:00 AM 14.2995 76.9509 146° Southeast  Level Estimated
Wed 10:01:00 AM 14.2266 77.0012 146° Southeast  Level Estimated
Wed 10:02:00 AM 14.1537 77.0514 146° Southeast  Level Estimated
Wed 10:03:00 AM 14.0807 77.1016 146° Southeast  Level Estimated
Wed 10:04:00 AM 14.0077 77.1518 146° Southeast  Level Estimated
Wed 10:05:00 AM 13.9347 77.2020 146° Southeast  Level Estimated
Wed 10:06:00 AM 13.8617 77.2521 146° Southeast  Level Estimated
Wed 10:07:00 AM 13.7887 77.3022 146° Southeast  Level Estimated
Wed 10:08:00 AM 13.7157 77.3523 146° Southeast  Level Estimated
Wed 10:09:00 AM 13.6427 77.4023 146° Southeast  Level Estimated
Wed 10:10:00 AM 13.5697 77.4523 146° Southeast  Level Estimated
Wed 10:11:00 AM 13.4966 77.5023 146° Southeast  Level Estimated
Wed 10:12:00 AM 13.4236 77.5522 146° Southeast  Level Estimated
Wed 10:13:00 AM 13.3505 77.6021 146° Southeast  Level Estimated
Wed 10:14:00 AM 13.2775 77.6520 146° Southeast  Level Estimated
Wed 10:15:00 AM 13.2044 77.7018 146° Southeast  Level Estimated
Wed 10:16:00 AM 13.1989 77.7056 146° Southeast  Level Estimated
Wed 10:17:00 AM 13.1989 77.7056 256° West  Level Estimated
Wed 10:18:00 AM 13.1989 77.7056 256° West  Level Estimated
Wed 10:19:00 AM 13.1989 77.7056 256° West  Level Estimated
Wed 10:20:00 AM 13.1989 77.7056 256° West  Level Estimated
Wed 10:21:00 AM 13.1989 77.7056 256° West  Level Estimated
Wed 10:22:00 AM 13.1989 77.7056 256° West  Level Estimated
Wed 10:23:00 AM 13.1989 77.7056 256° West  Level Estimated
Wed 10:24:00 AM 13.1989 77.7056 256° West  Level Estimated
Wed 10:25:00 AM 13.1989 77.7056 256° West  Level Estimated
Wed 10:26:00 AM 13.1989 77.7056 256° West  Level Estimated
Wed 10:27:00 AM 13.1989 77.7056 256° West  Level Estimated
Wed 10:28:00 AM 13.1989 77.7056 256° West  Level Estimated
Wed 10:29:00 AM 13.1989 77.7056 256° West  Level Estimated
Wed 10:30:00 AM 13.1989 77.7056 256° West  Level Estimated
Wed 10:31:00 AM 13.1989 77.7056 256° West  Level Estimated

Login

Don't have an account? Register now (free) for customized features, flight alerts, and more!